sensor_id;sensor_type;location;lat;lon;timestamp;temperature;humidity
69082;DHT22;56184;51.986;5.760;2023-01-13T00:02:02;10.00;99.90
69082;DHT22;56184;51.986;5.760;2023-01-13T00:04:28;10.10;99.90
69082;DHT22;56184;51.986;5.760;2023-01-13T00:06:59;10.00;99.90
69082;DHT22;56184;51.986;5.760;2023-01-13T00:09:25;9.90;99.90
69082;DHT22;56184;51.986;5.760;2023-01-13T00:11:56;9.80;99.90
69082;DHT22;56184;51.986;5.760;2023-01-13T00:14:22;9.80;99.90
69082;DHT22;56184;51.986;5.760;2023-01-13T00:17:14;9.60;99.90
69082;DHT22;56184;51.986;5.760;2023-01-13T00:19:40;9.60;99.90
69082;DHT22;56184;51.986;5.760;2023-01-13T00:22:05;9.60;99.90
69082;DHT22;56184;51.986;5.760;2023-01-13T00:24:40;9.50;99.90
69082;DHT22;56184;51.986;5.760;2023-01-13T00:27:06;9.50;99.90
69082;DHT22;56184;51.986;5.760;2023-01-13T00:29:44;9.50;99.90
69082;DHT22;56184;51.986;5.760;2023-01-13T00:32:12;9.40;99.90
69082;DHT22;56184;51.986;5.760;2023-01-13T00:34:55;9.40;99.90
69082;DHT22;56184;51.986;5.760;2023-01-13T00:37:27;9.30;99.90
69082;DHT22;56184;51.986;5.760;2023-01-13T00:39:53;9.30;99.90
69082;DHT22;56184;51.986;5.760;2023-01-13T00:42:18;9.30;99.90
69082;DHT22;56184;51.986;5.760;2023-01-13T00:45:04;9.40;99.90
69082;DHT22;56184;51.986;5.760;2023-01-13T00:47:30;9.30;99.90
69082;DHT22;56184;51.986;5.760;2023-01-13T00:50:42;9.30;99.90
69082;DHT22;56184;51.986;5.760;2023-01-13T00:53:08;9.20;99.90
69082;DHT22;56184;51.986;5.760;2023-01-13T00:55:33;9.10;99.90
69082;DHT22;56184;51.986;5.760;2023-01-13T00:58:10;9.00;99.90
69082;DHT22;56184;51.986;5.760;2023-01-13T01:01:08;9.00;99.90
69082;DHT22;56184;51.986;5.760;2023-01-13T01:03:35;9.10;99.90
69082;DHT22;56184;51.986;5.760;2023-01-13T01:06:26;9.00;99.90
69082;DHT22;56184;51.986;5.760;2023-01-13T01:08:53;9.00;99.90
69082;DHT22;56184;51.986;5.760;2023-01-13T01:11:25;9.10;99.90
69082;DHT22;56184;51.986;5.760;2023-01-13T01:13:52;9.10;99.90
69082;DHT22;56184;51.986;5.760;2023-01-13T01:16:21;9.10;99.90
69082;DHT22;56184;51.986;5.760;2023-01-13T01:18:48;9.10;99.90
69082;DHT22;56184;51.986;5.760;2023-01-13T01:21:15;9.10;99.90
69082;DHT22;56184;51.986;5.760;2023-01-13T01:23:44;9.10;99.90
69082;DHT22;56184;51.986;5.760;2023-01-13T01:26:13;9.10;99.90
69082;DHT22;56184;51.986;5.760;2023-01-13T01:28:39;9.10;99.90
69082;DHT22;56184;51.986;5.760;2023-01-13T01:31:11;9.10;99.90
69082;DHT22;56184;51.986;5.760;2023-01-13T01:33:37;9.00;99.90
69082;DHT22;56184;51.986;5.760;2023-01-13T01:36:07;9.00;99.90
69082;DHT22;56184;51.986;5.760;2023-01-13T01:38:45;8.90;99.90
69082;DHT22;56184;51.986;5.760;2023-01-13T01:41:17;9.00;99.90
69082;DHT22;56184;51.986;5.760;2023-01-13T01:43:46;9.00;99.90
69082;DHT22;56184;51.986;5.760;2023-01-13T01:46:41;8.90;99.90
69082;DHT22;56184;51.986;5.760;2023-01-13T01:51:54;8.80;99.90
69082;DHT22;56184;51.986;5.760;2023-01-13T01:54:27;8.80;99.90
69082;DHT22;56184;51.986;5.760;2023-01-13T01:56:57;8.80;99.90
69082;DHT22;56184;51.986;5.760;2023-01-13T01:59:31;8.80;99.90
69082;DHT22;56184;51.986;5.760;2023-01-13T02:01:58;8.80;99.90
69082;DHT22;56184;51.986;5.760;2023-01-13T02:04:46;8.80;99.90
69082;DHT22;56184;51.986;5.760;2023-01-13T02:07:32;8.80;99.90
69082;DHT22;56184;51.986;5.760;2023-01-13T02:10:23;8.80;99.90
69082;DHT22;56184;51.986;5.760;2023-01-13T02:13:12;8.70;99.90
69082;DHT22;56184;51.986;5.760;2023-01-13T02:16:00;8.90;99.90
69082;DHT22;56184;51.986;5.760;2023-01-13T02:18:55;8.80;99.90
69082;DHT22;56184;51.986;5.760;2023-01-13T02:28:04;8.60;99.90
69082;DHT22;56184;51.986;5.760;2023-01-13T02:30:55;8.60;99.90
69082;DHT22;56184;51.986;5.760;2023-01-13T02:34:24;8.60;99.90
69082;DHT22;56184;51.986;5.760;2023-01-13T02:37:16;8.60;99.90
69082;DHT22;56184;51.986;5.760;2023-01-13T02:43:40;8.60;99.90
69082;DHT22;56184;51.986;5.760;2023-01-13T02:52:22;8.40;99.90
69082;DHT22;56184;51.986;5.760;2023-01-13T02:55:01;8.40;99.90
69082;DHT22;56184;51.986;5.760;2023-01-13T02:57:52;8.50;99.90
69082;DHT22;56184;51.986;5.760;2023-01-13T03:00:29;8.50;99.90
69082;DHT22;56184;51.986;5.760;2023-01-13T03:03:17;8.50;99.90
69082;DHT22;56184;51.986;5.760;2023-01-13T03:05:44;8.50;99.90
69082;DHT22;56184;51.986;5.760;2023-01-13T03:08:33;8.50;99.90
69082;DHT22;56184;51.986;5.760;2023-01-13T03:11:24;8.60;99.90
69082;DHT22;56184;51.986;5.760;2023-01-13T03:14:29;8.60;99.90
69082;DHT22;56184;51.986;5.760;2023-01-13T03:17:39;8.60;99.90
69082;DHT22;56184;51.986;5.760;2023-01-13T03:20:15;8.50;99.90
69082;DHT22;56184;51.986;5.760;2023-01-13T03:23:05;8.60;99.90
69082;DHT22;56184;51.986;5.760;2023-01-13T03:25:38;8.60;99.90
69082;DHT22;56184;51.986;5.760;2023-01-13T03:28:24;8.60;99.90
69082;DHT22;56184;51.986;5.760;2023-01-13T03:31:10;8.60;99.90
69082;DHT22;56184;51.986;5.760;2023-01-13T03:33:43;8.70;99.90
69082;DHT22;56184;51.986;5.760;2023-01-13T03:36:12;8.70;99.90
69082;DHT22;56184;51.986;5.760;2023-01-13T03:38:44;8.70;99.90
69082;DHT22;56184;51.986;5.760;2023-01-13T03:41:35;8.70;99.90
69082;DHT22;56184;51.986;5.760;2023-01-13T03:49:55;8.70;99.90
69082;DHT22;56184;51.986;5.760;2023-01-13T03:55:15;8.70;99.90
69082;DHT22;56184;51.986;5.760;2023-01-13T03:58:04;8.70;99.90
69082;DHT22;56184;51.986;5.760;2023-01-13T04:00:56;8.80;99.90
69082;DHT22;56184;51.986;5.760;2023-01-13T04:06:46;8.80;99.90
69082;DHT22;56184;51.986;5.760;2023-01-13T04:12:30;8.70;99.90
69082;DHT22;56184;51.986;5.760;2023-01-13T04:15:38;8.60;99.90
69082;DHT22;56184;51.986;5.760;2023-01-13T04:21:58;8.60;99.90
69082;DHT22;56184;51.986;5.760;2023-01-13T04:24:25;8.50;99.90
69082;DHT22;56184;51.986;5.760;2023-01-13T04:26:53;8.50;99.90
69082;DHT22;56184;51.986;5.760;2023-01-13T04:29:21;8.40;99.90
69082;DHT22;56184;51.986;5.760;2023-01-13T04:32:02;8.40;99.90
69082;DHT22;56184;51.986;5.760;2023-01-13T04:34:43;8.40;99.90
69082;DHT22;56184;51.986;5.760;2023-01-13T04:37:11;8.40;99.90
69082;DHT22;56184;51.986;5.760;2023-01-13T04:39:49;8.30;99.90
69082;DHT22;56184;51.986;5.760;2023-01-13T04:42:14;8.30;99.90
69082;DHT22;56184;51.986;5.760;2023-01-13T04:44:53;8.40;99.90
69082;DHT22;56184;51.986;5.760;2023-01-13T04:47:59;8.40;99.90
69082;DHT22;56184;51.986;5.760;2023-01-13T04:50:45;8.30;99.50
69082;DHT22;56184;51.986;5.760;2023-01-13T04:53:35;8.30;99.70
69082;DHT22;56184;51.986;5.760;2023-01-13T04:56:51;8.30;98.60
69082;DHT22;56184;51.986;5.760;2023-01-13T04:59:25;8.30;98.20
69082;DHT22;56184;51.986;5.760;2023-01-13T05:02:11;8.20;98.40
69082;DHT22;56184;51.986;5.760;2023-01-13T05:07:57;8.30;98.20
69082;DHT22;56184;51.986;5.760;2023-01-13T05:10:36;8.30;99.20
69082;DHT22;56184;51.986;5.760;2023-01-13T05:13:02;8.30;98.20
69082;DHT22;56184;51.986;5.760;2023-01-13T05:16:10;8.30;98.60
69082;DHT22;56184;51.986;5.760;2023-01-13T05:21:53;8.20;98.80
69082;DHT22;56184;51.986;5.760;2023-01-13T05:24:46;8.20;99.50
69082;DHT22;56184;51.986;5.760;2023-01-13T05:27:45;8.20;99.90
69082;DHT22;56184;51.986;5.760;2023-01-13T05:33:44;8.30;99.80
69082;DHT22;56184;51.986;5.760;2023-01-13T05:36:29;8.30;99.90
69082;DHT22;56184;51.986;5.760;2023-01-13T05:38:54;8.40;99.90
69082;DHT22;56184;51.986;5.760;2023-01-13T05:44:31;8.30;99.90
69082;DHT22;56184;51.986;5.760;2023-01-13T05:46:57;8.40;99.90
69082;DHT22;56184;51.986;5.760;2023-01-13T05:53:22;8.40;99.90
69082;DHT22;56184;51.986;5.760;2023-01-13T05:55:49;8.40;99.90
69082;DHT22;56184;51.986;5.760;2023-01-13T05:58:22;8.40;99.90
69082;DHT22;56184;51.986;5.760;2023-01-13T06:00:48;8.30;99.90
69082;DHT22;56184;51.986;5.760;2023-01-13T06:03:25;8.30;99.90
69082;DHT22;56184;51.986;5.760;2023-01-13T06:05:57;8.20;99.90
69082;DHT22;56184;51.986;5.760;2023-01-13T06:08:26;8.30;99.90
69082;DHT22;56184;51.986;5.760;2023-01-13T06:14:44;8.20;99.80
69082;DHT22;56184;51.986;5.760;2023-01-13T06:17:48;8.20;99.90
69082;DHT22;56184;51.986;5.760;2023-01-13T06:20:21;8.10;99.90
69082;DHT22;56184;51.986;5.760;2023-01-13T06:23:00;8.20;99.90
69082;DHT22;56184;51.986;5.760;2023-01-13T06:28:55;8.20;99.60
69082;DHT22;56184;51.986;5.760;2023-01-13T06:40:43;8.10;99.90
69082;DHT22;56184;51.986;5.760;2023-01-13T06:43:09;8.00;99.90
69082;DHT22;56184;51.986;5.760;2023-01-13T06:48:13;8.00;99.90
69082;DHT22;56184;51.986;5.760;2023-01-13T06:50:45;8.00;99.90
69082;DHT22;56184;51.986;5.760;2023-01-13T06:53:25;8.10;99.90
69082;DHT22;56184;51.986;5.760;2023-01-13T06:55:51;8.00;99.90
69082;DHT22;56184;51.986;5.760;2023-01-13T06:58:29;8.00;99.80
69082;DHT22;56184;51.986;5.760;2023-01-13T07:01:04;8.10;99.90
69082;DHT22;56184;51.986;5.760;2023-01-13T07:03:44;8.20;99.90
69082;DHT22;56184;51.986;5.760;2023-01-13T07:06:10;8.20;99.90
69082;DHT22;56184;51.986;5.760;2023-01-13T07:08:35;8.20;99.90
69082;DHT22;56184;51.986;5.760;2023-01-13T07:11:01;8.20;99.90
69082;DHT22;56184;51.986;5.760;2023-01-13T07:13:30;8.30;99.90
69082;DHT22;56184;51.986;5.760;2023-01-13T07:16:14;8.30;99.90
69082;DHT22;56184;51.986;5.760;2023-01-13T07:18:40;8.30;99.90
69082;DHT22;56184;51.986;5.760;2023-01-13T07:21:15;8.30;99.90
69082;DHT22;56184;51.986;5.760;2023-01-13T07:23:50;8.20;99.90
69082;DHT22;56184;51.986;5.760;2023-01-13T07:26:16;8.30;99.90
69082;DHT22;56184;51.986;5.760;2023-01-13T07:32:20;8.30;99.50
69082;DHT22;56184;51.986;5.760;2023-01-13T07:41:55;8.30;98.80
69082;DHT22;56184;51.986;5.760;2023-01-13T07:44:48;8.20;99.70
69082;DHT22;56184;51.986;5.760;2023-01-13T07:51:09;8.20;99.00
69082;DHT22;56184;51.986;5.760;2023-01-13T07:53:52;8.30;99.30
69082;DHT22;56184;51.986;5.760;2023-01-13T07:56:18;8.30;98.10
69082;DHT22;56184;51.986;5.760;2023-01-13T07:59:17;8.30;99.20
69082;DHT22;56184;51.986;5.760;2023-01-13T08:01:57;8.30;98.50
69082;DHT22;56184;51.986;5.760;2023-01-13T08:04:22;8.30;98.80
69082;DHT22;56184;51.986;5.760;2023-01-13T08:06:50;8.30;98.40
69082;DHT22;56184;51.986;5.760;2023-01-13T08:09:16;8.30;97.70
69082;DHT22;56184;51.986;5.760;2023-01-13T08:11:56;8.30;98.70
69082;DHT22;56184;51.986;5.760;2023-01-13T08:14:50;8.40;98.80
69082;DHT22;56184;51.986;5.760;2023-01-13T08:17:19;8.30;98.20
69082;DHT22;56184;51.986;5.760;2023-01-13T08:19:47;8.40;98.80
69082;DHT22;56184;51.986;5.760;2023-01-13T08:22:15;8.40;99.10
69082;DHT22;56184;51.986;5.760;2023-01-13T08:27:17;8.50;97.70
69082;DHT22;56184;51.986;5.760;2023-01-13T08:29:54;8.50;97.70
69082;DHT22;56184;51.986;5.760;2023-01-13T08:32:20;8.40;98.30
69082;DHT22;56184;51.986;5.760;2023-01-13T08:34:45;8.50;97.90
69082;DHT22;56184;51.986;5.760;2023-01-13T08:37:11;8.50;98.30
69082;DHT22;56184;51.986;5.760;2023-01-13T08:39:40;8.50;98.00
69082;DHT22;56184;51.986;5.760;2023-01-13T08:42:06;8.50;98.10
69082;DHT22;56184;51.986;5.760;2023-01-13T08:44:40;8.40;97.70
69082;DHT22;56184;51.986;5.760;2023-01-13T08:47:06;8.50;98.40
69082;DHT22;56184;51.986;5.760;2023-01-13T08:49:56;8.50;98.10
69082;DHT22;56184;51.986;5.760;2023-01-13T08:52:28;8.50;98.80
69082;DHT22;56184;51.986;5.760;2023-01-13T08:54:54;8.40;98.30
69082;DHT22;56184;51.986;5.760;2023-01-13T08:57:20;8.50;98.50
69082;DHT22;56184;51.986;5.760;2023-01-13T09:00:02;8.60;99.10
69082;DHT22;56184;51.986;5.760;2023-01-13T09:02:31;8.50;99.10
69082;DHT22;56184;51.986;5.760;2023-01-13T09:05:04;8.40;98.30
69082;DHT22;56184;51.986;5.760;2023-01-13T09:07:32;8.50;99.20
69082;DHT22;56184;51.986;5.760;2023-01-13T09:10:15;8.40;99.80
69082;DHT22;56184;51.986;5.760;2023-01-13T09:12:41;8.30;99.90
69082;DHT22;56184;51.986;5.760;2023-01-13T09:15:30;8.20;99.90
69082;DHT22;56184;51.986;5.760;2023-01-13T09:17:59;8.20;99.90
69082;DHT22;56184;51.986;5.760;2023-01-13T09:20:28;8.20;99.90
69082;DHT22;56184;51.986;5.760;2023-01-13T09:22:57;8.20;99.90
69082;DHT22;56184;51.986;5.760;2023-01-13T09:25:22;8.30;99.90
69082;DHT22;56184;51.986;5.760;2023-01-13T09:27:56;8.20;99.90
69082;DHT22;56184;51.986;5.760;2023-01-13T09:30:21;8.20;99.90
69082;DHT22;56184;51.986;5.760;2023-01-13T09:36:35;8.10;99.90
69082;DHT22;56184;51.986;5.760;2023-01-13T09:39:06;8.00;99.90
69082;DHT22;56184;51.986;5.760;2023-01-13T09:41:51;8.00;99.90
69082;DHT22;56184;51.986;5.760;2023-01-13T09:44:57;7.90;99.90
69082;DHT22;56184;51.986;5.760;2023-01-13T09:51:17;7.90;99.90
69082;DHT22;56184;51.986;5.760;2023-01-13T09:56:54;7.70;99.90
69082;DHT22;56184;51.986;5.760;2023-01-13T09:59:20;7.80;99.90
69082;DHT22;56184;51.986;5.760;2023-01-13T10:04:16;7.80;99.90
69082;DHT22;56184;51.986;5.760;2023-01-13T10:07:12;7.70;99.90
69082;DHT22;56184;51.986;5.760;2023-01-13T10:10:02;7.60;99.90
69082;DHT22;56184;51.986;5.760;2023-01-13T10:12:34;7.60;99.90
69082;DHT22;56184;51.986;5.760;2023-01-13T10:15:29;7.60;99.90
69082;DHT22;56184;51.986;5.760;2023-01-13T10:31:25;7.60;99.90
69082;DHT22;56184;51.986;5.760;2023-01-13T10:37:22;7.70;99.90
69082;DHT22;56184;51.986;5.760;2023-01-13T10:43:08;7.80;99.90
69082;DHT22;56184;51.986;5.760;2023-01-13T10:48:53;7.80;99.90
69082;DHT22;56184;51.986;5.760;2023-01-13T10:54:49;7.80;99.90
69082;DHT22;56184;51.986;5.760;2023-01-13T10:57:25;7.90;99.90
69082;DHT22;56184;51.986;5.760;2023-01-13T11:03:49;8.00;99.90
69082;DHT22;56184;51.986;5.760;2023-01-13T11:06:44;8.00;99.90
69082;DHT22;56184;51.986;5.760;2023-01-13T11:09:38;7.80;99.90
69082;DHT22;56184;51.986;5.760;2023-01-13T11:15:22;7.80;99.90
69082;DHT22;56184;51.986;5.760;2023-01-13T11:18:09;7.70;99.90
69082;DHT22;56184;51.986;5.760;2023-01-13T11:20:41;7.70;99.90
69082;DHT22;56184;51.986;5.760;2023-01-13T11:23:31;7.80;99.90
69082;DHT22;56184;51.986;5.760;2023-01-13T11:26:30;7.80;99.90
69082;DHT22;56184;51.986;5.760;2023-01-13T11:29:09;7.80;99.90
69082;DHT22;56184;51.986;5.760;2023-01-13T11:31:43;7.90;99.90
69082;DHT22;56184;51.986;5.760;2023-01-13T11:36:53;7.90;99.90
69082;DHT22;56184;51.986;5.760;2023-01-13T11:42:42;8.00;99.90
69082;DHT22;56184;51.986;5.760;2023-01-13T11:45:52;8.00;99.90
69082;DHT22;56184;51.986;5.760;2023-01-13T11:48:34;8.00;99.90
69082;DHT22;56184;51.986;5.760;2023-01-13T11:51:18;8.10;99.90
69082;DHT22;56184;51.986;5.760;2023-01-13T12:11:59;8.20;99.90
69082;DHT22;56184;51.986;5.760;2023-01-13T12:18:13;8.30;99.90
69082;DHT22;56184;51.986;5.760;2023-01-13T12:29:56;8.00;99.90
69082;DHT22;56184;51.986;5.760;2023-01-13T12:32:51;8.10;99.90
69082;DHT22;56184;51.986;5.760;2023-01-13T12:38:54;8.00;99.90
69082;DHT22;56184;51.986;5.760;2023-01-13T12:45:31;7.90;99.90
69082;DHT22;56184;51.986;5.760;2023-01-13T12:51:00;8.00;99.90
69082;DHT22;56184;51.986;5.760;2023-01-13T12:53:35;8.00;99.90
69082;DHT22;56184;51.986;5.760;2023-01-13T12:56:35;8.00;99.90
69082;DHT22;56184;51.986;5.760;2023-01-13T13:11:34;8.10;99.90
69082;DHT22;56184;51.986;5.760;2023-01-13T13:30:38;8.40;99.90
69082;DHT22;56184;51.986;5.760;2023-01-13T13:43:12;8.60;99.90
69082;DHT22;56184;51.986;5.760;2023-01-13T13:45:58;8.80;99.90
69082;DHT22;56184;51.986;5.760;2023-01-13T13:48:52;8.70;99.90
69082;DHT22;56184;51.986;5.760;2023-01-13T13:51:35;8.70;99.90
69082;DHT22;56184;51.986;5.760;2023-01-13T13:54:29;8.80;99.90
69082;DHT22;56184;51.986;5.760;2023-01-13T13:56:58;8.80;99.80
69082;DHT22;56184;51.986;5.760;2023-01-13T13:59:27;8.80;99.90
69082;DHT22;56184;51.986;5.760;2023-01-13T14:05:36;8.80;99.90
69082;DHT22;56184;51.986;5.760;2023-01-13T14:08:14;8.90;99.90
69082;DHT22;56184;51.986;5.760;2023-01-13T14:18:04;8.90;99.50
69082;DHT22;56184;51.986;5.760;2023-01-13T14:20:31;8.90;99.80
69082;DHT22;56184;51.986;5.760;2023-01-13T14:22:59;9.00;99.90
69082;DHT22;56184;51.986;5.760;2023-01-13T14:29:23;9.00;99.70
69082;DHT22;56184;51.986;5.760;2023-01-13T15:05:29;9.20;99.00
69082;DHT22;56184;51.986;5.760;2023-01-13T16:01:40;9.10;97.60
69082;DHT22;56184;51.986;5.760;2023-01-13T16:06:53;8.90;97.40
69082;DHT22;56184;51.986;5.760;2023-01-13T16:09:25;8.90;98.90
69082;DHT22;56184;51.986;5.760;2023-01-13T16:12:10;8.90;98.30
69082;DHT22;56184;51.986;5.760;2023-01-13T16:28:28;8.90;98.80
69082;DHT22;56184;51.986;5.760;2023-01-13T16:30:54;8.90;98.50
69082;DHT22;56184;51.986;5.760;2023-01-13T16:43:36;8.90;98.40
69082;DHT22;56184;51.986;5.760;2023-01-13T16:49:38;8.80;98.90
69082;DHT22;56184;51.986;5.760;2023-01-13T16:58:26;8.70;99.90
69082;DHT22;56184;51.986;5.760;2023-01-13T17:00:57;8.80;99.40
69082;DHT22;56184;51.986;5.760;2023-01-13T17:17:21;8.80;98.70
69082;DHT22;56184;51.986;5.760;2023-01-13T17:20:02;8.90;98.70
69082;DHT22;56184;51.986;5.760;2023-01-13T17:22:27;8.80;98.40
69082;DHT22;56184;51.986;5.760;2023-01-13T17:24:55;8.90;97.80
69082;DHT22;56184;51.986;5.760;2023-01-13T17:27:24;8.90;97.60
69082;DHT22;56184;51.986;5.760;2023-01-13T17:29:50;8.90;98.30
69082;DHT22;56184;51.986;5.760;2023-01-13T17:32:17;8.90;98.10
69082;DHT22;56184;51.986;5.760;2023-01-13T17:34:52;8.80;99.80
69082;DHT22;56184;51.986;5.760;2023-01-13T17:37:19;8.70;99.90
69082;DHT22;56184;51.986;5.760;2023-01-13T17:40:04;8.40;99.90
69082;DHT22;56184;51.986;5.760;2023-01-13T17:42:29;8.30;99.90
69082;DHT22;56184;51.986;5.760;2023-01-13T17:45:05;7.80;99.90
69082;DHT22;56184;51.986;5.760;2023-01-13T17:47:31;7.50;99.90
69082;DHT22;56184;51.986;5.760;2023-01-13T17:49:56;7.40;99.90
69082;DHT22;56184;51.986;5.760;2023-01-13T17:52:28;7.30;99.90
69082;DHT22;56184;51.986;5.760;2023-01-13T17:54:54;7.20;99.90
69082;DHT22;56184;51.986;5.760;2023-01-13T17:57:20;7.30;99.90
69082;DHT22;56184;51.986;5.760;2023-01-13T18:00:02;7.30;99.90
69082;DHT22;56184;51.986;5.760;2023-01-13T18:02:28;7.30;99.90
69082;DHT22;56184;51.986;5.760;2023-01-13T18:05:00;7.30;99.90
69082;DHT22;56184;51.986;5.760;2023-01-13T18:07:29;7.30;99.90
69082;DHT22;56184;51.986;5.760;2023-01-13T18:10:10;7.20;99.90
69082;DHT22;56184;51.986;5.760;2023-01-13T18:12:42;7.00;99.90
69082;DHT22;56184;51.986;5.760;2023-01-13T18:15:16;6.90;99.90
69082;DHT22;56184;51.986;5.760;2023-01-13T18:17:42;6.90;99.90
69082;DHT22;56184;51.986;5.760;2023-01-13T18:20:24;6.70;99.90
69082;DHT22;56184;51.986;5.760;2023-01-13T18:23:16;6.80;99.90
69082;DHT22;56184;51.986;5.760;2023-01-13T18:26:21;6.70;99.90
69082;DHT22;56184;51.986;5.760;2023-01-13T18:29:05;6.80;99.90
69082;DHT22;56184;51.986;5.760;2023-01-13T18:34:06;6.80;99.90
69082;DHT22;56184;51.986;5.760;2023-01-13T18:36:32;6.80;99.90
69082;DHT22;56184;51.986;5.760;2023-01-13T18:38:57;6.90;99.90
69082;DHT22;56184;51.986;5.760;2023-01-13T18:41:23;6.90;99.90
69082;DHT22;56184;51.986;5.760;2023-01-13T18:44:07;7.00;99.90
69082;DHT22;56184;51.986;5.760;2023-01-13T18:46:32;7.00;99.90
69082;DHT22;56184;51.986;5.760;2023-01-13T18:48:58;7.00;99.90
69082;DHT22;56184;51.986;5.760;2023-01-13T18:51:23;7.10;99.90
69082;DHT22;56184;51.986;5.760;2023-01-13T18:53:49;7.10;99.90
69082;DHT22;56184;51.986;5.760;2023-01-13T18:56:15;7.10;99.90
69082;DHT22;56184;51.986;5.760;2023-01-13T18:58:42;7.20;99.90
69082;DHT22;56184;51.986;5.760;2023-01-13T19:01:15;7.20;99.90
69082;DHT22;56184;51.986;5.760;2023-01-13T19:03:41;7.30;99.90
69082;DHT22;56184;51.986;5.760;2023-01-13T19:06:06;7.30;99.90
69082;DHT22;56184;51.986;5.760;2023-01-13T19:08:38;7.30;99.90
69082;DHT22;56184;51.986;5.760;2023-01-13T19:11:05;7.30;99.90
69082;DHT22;56184;51.986;5.760;2023-01-13T19:13:31;7.30;99.90
69082;DHT22;56184;51.986;5.760;2023-01-13T19:16:03;7.30;99.90
69082;DHT22;56184;51.986;5.760;2023-01-13T19:18:29;7.20;99.90
69082;DHT22;56184;51.986;5.760;2023-01-13T19:21:00;7.20;99.90
69082;DHT22;56184;51.986;5.760;2023-01-13T19:23:25;7.20;99.90
69082;DHT22;56184;51.986;5.760;2023-01-13T19:25:51;7.10;99.90
69082;DHT22;56184;51.986;5.760;2023-01-13T19:28:16;7.20;99.90
69082;DHT22;56184;51.986;5.760;2023-01-13T19:30:42;7.30;99.90
69082;DHT22;56184;51.986;5.760;2023-01-13T19:33:08;7.30;99.90
69082;DHT22;56184;51.986;5.760;2023-01-13T19:35:36;7.30;99.90
69082;DHT22;56184;51.986;5.760;2023-01-13T19:38:01;7.30;99.90
69082;DHT22;56184;51.986;5.760;2023-01-13T19:40:27;7.30;99.90
69082;DHT22;56184;51.986;5.760;2023-01-13T19:42:52;7.20;99.90
69082;DHT22;56184;51.986;5.760;2023-01-13T19:45:37;7.20;99.90
69082;DHT22;56184;51.986;5.760;2023-01-13T19:48:02;7.30;99.90
69082;DHT22;56184;51.986;5.760;2023-01-13T19:50:30;7.30;99.90
69082;DHT22;56184;51.986;5.760;2023-01-13T19:52:56;7.30;99.90
69082;DHT22;56184;51.986;5.760;2023-01-13T19:55:24;7.30;99.90
69082;DHT22;56184;51.986;5.760;2023-01-13T19:57:49;7.30;99.90
69082;DHT22;56184;51.986;5.760;2023-01-13T20:00:40;7.20;99.90
69082;DHT22;56184;51.986;5.760;2023-01-13T20:03:31;7.20;99.90
69082;DHT22;56184;51.986;5.760;2023-01-13T20:06:18;7.30;99.90
69082;DHT22;56184;51.986;5.760;2023-01-13T20:08:44;7.30;99.90
69082;DHT22;56184;51.986;5.760;2023-01-13T20:11:35;7.20;99.90
69082;DHT22;56184;51.986;5.760;2023-01-13T20:14:01;7.30;99.90
69082;DHT22;56184;51.986;5.760;2023-01-13T20:16:38;7.30;99.90
69082;DHT22;56184;51.986;5.760;2023-01-13T20:19:14;7.40;99.90
69082;DHT22;56184;51.986;5.760;2023-01-13T20:21:53;7.40;99.90
69082;DHT22;56184;51.986;5.760;2023-01-13T20:24:44;7.40;99.90
69082;DHT22;56184;51.986;5.760;2023-01-13T20:27:15;7.50;99.90
69082;DHT22;56184;51.986;5.760;2023-01-13T20:29:50;7.50;99.90
69082;DHT22;56184;51.986;5.760;2023-01-13T20:32:15;7.60;99.90
69082;DHT22;56184;51.986;5.760;2023-01-13T20:34:50;7.60;99.90
69082;DHT22;56184;51.986;5.760;2023-01-13T20:37:32;7.60;99.90
69082;DHT22;56184;51.986;5.760;2023-01-13T20:43:30;7.50;99.90
69082;DHT22;56184;51.986;5.760;2023-01-13T20:56:06;7.20;99.90
69082;DHT22;56184;51.986;5.760;2023-01-13T20:58:56;7.10;99.90
69082;DHT22;56184;51.986;5.760;2023-01-13T21:01:27;7.20;99.90
69082;DHT22;56184;51.986;5.760;2023-01-13T21:03:57;7.20;99.90
69082;DHT22;56184;51.986;5.760;2023-01-13T21:06:38;7.20;99.90
69082;DHT22;56184;51.986;5.760;2023-01-13T21:09:31;7.20;99.90
69082;DHT22;56184;51.986;5.760;2023-01-13T21:12:13;7.20;99.90
69082;DHT22;56184;51.986;5.760;2023-01-13T21:14:57;7.20;99.90
69082;DHT22;56184;51.986;5.760;2023-01-13T21:18:03;7.20;99.90
69082;DHT22;56184;51.986;5.760;2023-01-13T21:21:26;7.20;99.90
69082;DHT22;56184;51.986;5.760;2023-01-13T21:23:52;7.20;99.90
69082;DHT22;56184;51.986;5.760;2023-01-13T21:26:19;7.20;99.90
69082;DHT22;56184;51.986;5.760;2023-01-13T21:32:33;7.10;99.90
69082;DHT22;56184;51.986;5.760;2023-01-13T21:35:04;7.20;99.90
69082;DHT22;56184;51.986;5.760;2023-01-13T21:37:52;7.20;99.90
69082;DHT22;56184;51.986;5.760;2023-01-13T21:40:20;7.20;99.90
69082;DHT22;56184;51.986;5.760;2023-01-13T21:46:51;7.20;99.90
69082;DHT22;56184;51.986;5.760;2023-01-13T21:49:55;7.20;99.90
69082;DHT22;56184;51.986;5.760;2023-01-13T21:52:33;7.30;99.90
69082;DHT22;56184;51.986;5.760;2023-01-13T21:55:29;7.30;99.90
69082;DHT22;56184;51.986;5.760;2023-01-13T22:04:53;7.30;99.90
69082;DHT22;56184;51.986;5.760;2023-01-13T22:10:04;7.30;99.90
69082;DHT22;56184;51.986;5.760;2023-01-13T22:12:59;7.40;99.90
69082;DHT22;56184;51.986;5.760;2023-01-13T22:15:55;7.50;99.90
69082;DHT22;56184;51.986;5.760;2023-01-13T22:25:12;7.70;99.90
69082;DHT22;56184;51.986;5.760;2023-01-13T22:28:16;7.70;99.90
69082;DHT22;56184;51.986;5.760;2023-01-13T22:30:57;7.70;99.90
69082;DHT22;56184;51.986;5.760;2023-01-13T22:33:51;7.70;99.90
69082;DHT22;56184;51.986;5.760;2023-01-13T22:36:38;7.70;99.90
69082;DHT22;56184;51.986;5.760;2023-01-13T22:39:12;7.70;99.90
69082;DHT22;56184;51.986;5.760;2023-01-13T22:41:56;7.70;99.90
69082;DHT22;56184;51.986;5.760;2023-01-13T22:44:27;7.70;99.90
69082;DHT22;56184;51.986;5.760;2023-01-13T22:46:59;7.70;99.90
69082;DHT22;56184;51.986;5.760;2023-01-13T22:49:50;7.70;99.90
69082;DHT22;56184;51.986;5.760;2023-01-13T22:52:34;7.80;99.90
69082;DHT22;56184;51.986;5.760;2023-01-13T22:55:03;7.80;99.90
69082;DHT22;56184;51.986;5.760;2023-01-13T22:57:44;7.80;99.90
69082;DHT22;56184;51.986;5.760;2023-01-13T23:00:15;7.80;99.90
69082;DHT22;56184;51.986;5.760;2023-01-13T23:06:19;7.80;99.90
69082;DHT22;56184;51.986;5.760;2023-01-13T23:08:45;7.90;99.90
69082;DHT22;56184;51.986;5.760;2023-01-13T23:11:33;7.90;99.90
69082;DHT22;56184;51.986;5.760;2023-01-13T23:14:14;7.90;99.90
69082;DHT22;56184;51.986;5.760;2023-01-13T23:17:01;7.80;99.90
69082;DHT22;56184;51.986;5.760;2023-01-13T23:19:56;7.80;99.90
69082;DHT22;56184;51.986;5.760;2023-01-13T23:22:21;7.80;99.90
69082;DHT22;56184;51.986;5.760;2023-01-13T23:24:56;7.80;99.90
69082;DHT22;56184;51.986;5.760;2023-01-13T23:31:01;7.90;99.90
69082;DHT22;56184;51.986;5.760;2023-01-13T23:33:45;7.90;99.90
69082;DHT22;56184;51.986;5.760;2023-01-13T23:36:30;7.90;99.90
69082;DHT22;56184;51.986;5.760;2023-01-13T23:38:58;7.90;99.90
69082;DHT22;56184;51.986;5.760;2023-01-13T23:41:25;7.90;99.90
69082;DHT22;56184;51.986;5.760;2023-01-13T23:44:01;7.80;99.90
69082;DHT22;56184;51.986;5.760;2023-01-13T23:46:28;7.90;99.90